createdAt,value
2018-05-13T06:20:12.047Z,4.50
2018-05-13T06:22:12.980Z,4.70
2018-05-13T06:23:13.595Z,4.90
2018-05-13T06:24:14.193Z,4.60
2018-05-13T06:25:14.884Z,4.70
2018-05-13T06:27:15.771Z,4.90
2018-05-13T06:28:16.356Z,4.30
2018-05-13T06:30:17.224Z,4.00
2018-05-13T06:31:17.791Z,4.40
2018-05-13T06:32:18.413Z,4.70
2018-05-13T06:33:18.984Z,4.00
2018-05-13T06:34:19.567Z,3.80
2018-05-13T06:35:20.143Z,4.50
2018-05-13T06:36:20.733Z,4.40
2018-05-13T06:37:21.288Z,4.50
2018-05-13T06:38:21.923Z,4.40
2018-05-13T06:39:22.560Z,4.40
2018-05-13T06:40:23.125Z,4.00
2018-05-13T06:41:23.712Z,4.30
2018-05-13T06:42:24.297Z,4.10
2018-05-13T06:43:24.938Z,4.30
2018-05-13T06:44:25.517Z,4.30
2018-05-13T06:45:26.178Z,4.20
2018-05-13T06:47:27.058Z,4.40
2018-05-13T06:48:27.622Z,4.30
2018-05-13T06:49:28.215Z,4.30
2018-05-13T06:50:28.780Z,4.30
2018-05-13T06:51:30.000Z,4.20
2018-05-13T06:52:30.568Z,4.10
2018-05-13T06:53:31.190Z,4.40
2018-05-13T06:54:31.765Z,4.30
2018-05-13T06:56:32.674Z,4.30
2018-05-13T06:58:33.592Z,3.90
2018-05-13T06:59:34.143Z,4.30
2018-05-13T07:00:34.733Z,4.20
2018-05-13T07:01:35.321Z,4.20
2018-05-13T07:02:35.991Z,4.70
2018-05-13T07:03:36.567Z,4.40
2018-05-13T07:04:37.180Z,4.00
2018-05-13T07:05:37.772Z,4.30
2018-05-13T07:06:38.341Z,4.20
2018-05-13T07:07:38.933Z,4.00
2018-05-13T07:08:39.509Z,4.20
2018-05-13T07:09:40.102Z,4.50
2018-05-13T07:10:40.677Z,4.30
2018-05-13T07:11:41.311Z,4.50
2018-05-13T07:12:41.890Z,4.50
2018-05-13T07:13:42.484Z,4.70
2018-05-13T07:14:43.111Z,4.40
2018-05-13T07:15:43.663Z,4.30
2018-05-13T07:16:44.311Z,4.30
2018-05-13T07:17:44.900Z,4.40
2018-05-13T07:18:45.530Z,4.50
2018-05-13T07:19:46.088Z,4.30
2018-05-13T07:20:46.658Z,4.60
2018-05-13T07:21:47.253Z,4.60
2018-05-13T07:22:47.867Z,4.40
2018-05-13T07:23:48.455Z,4.50
2018-05-13T07:24:49.068Z,4.70
2018-05-13T07:25:49.754Z,4.80
2018-05-13T07:26:50.365Z,4.80
2018-05-13T07:27:50.922Z,4.90
2018-05-13T07:28:51.491Z,4.50
2018-05-13T07:29:52.140Z,4.80
2018-05-13T07:30:52.738Z,5.00
2018-05-13T07:31:53.318Z,4.80
2018-05-13T07:32:53.917Z,4.90
2018-05-13T07:33:54.465Z,5.40
2018-05-13T07:34:55.095Z,4.80
2018-05-13T07:35:55.674Z,4.90
2018-05-13T07:36:56.301Z,4.90
2018-05-13T07:38:57.262Z,4.70
2018-05-13T07:39:57.813Z,5.00
2018-05-13T07:40:58.447Z,4.80
2018-05-13T07:59:35.387Z,5.20
2018-05-13T08:00:36.035Z,5.10
2018-05-13T08:01:40.458Z,5.80
2018-05-13T08:02:41.049Z,5.80
2018-05-13T08:03:41.631Z,5.20
2018-05-13T08:04:45.334Z,5.20
2018-05-13T08:05:45.911Z,5.20
2018-05-13T08:06:46.549Z,5.20
2018-05-13T08:07:47.116Z,5.30
2018-05-13T08:08:47.677Z,5.60
2018-05-13T08:09:48.267Z,5.50
2018-05-13T08:10:48.821Z,5.50
2018-05-13T08:11:49.391Z,5.70
2018-05-13T08:12:50.000Z,5.60
2018-05-13T08:13:50.648Z,6.00
2018-05-13T08:14:51.259Z,5.60
2018-05-13T08:15:51.811Z,5.40
2018-05-13T08:16:52.380Z,5.70
2018-05-13T08:17:53.782Z,5.60
2018-05-13T08:18:54.332Z,5.50
2018-05-13T08:19:55.811Z,5.50
2018-05-13T08:21:58.844Z,5.10
2018-05-13T08:22:59.443Z,5.30
2018-05-13T08:24:00.032Z,5.20
2018-05-13T08:25:00.643Z,5.60
2018-05-13T08:26:01.285Z,5.40
2018-05-13T08:27:01.915Z,5.20
2018-05-13T08:28:02.482Z,5.10
2018-05-13T08:29:03.096Z,4.80
2018-05-13T08:30:03.667Z,5.30
2018-05-13T08:31:04.352Z,5.30
2018-05-13T08:32:04.917Z,5.20
2018-05-13T08:33:05.489Z,6.00
2018-05-13T08:34:06.076Z,5.50
2018-05-13T08:35:06.727Z,5.80
2018-05-13T08:36:07.313Z,5.20
2018-05-13T08:37:07.870Z,5.10
2018-05-13T08:38:08.464Z,5.30
2018-05-13T08:39:09.028Z,5.30
2018-05-13T08:40:09.636Z,5.10
2018-05-13T08:41:10.200Z,5.00
2018-05-13T08:42:10.779Z,5.10
2018-05-13T08:43:11.367Z,5.10
2018-05-13T08:45:12.235Z,5.40
2018-05-13T08:46:12.820Z,5.30
2018-05-13T08:47:13.441Z,5.20
2018-05-13T08:48:14.051Z,5.30
2018-05-13T08:49:14.619Z,5.20
2018-05-13T08:50:15.176Z,5.40
2018-05-13T08:51:15.728Z,5.10
2018-05-13T08:52:16.289Z,5.10
2018-05-13T08:53:16.869Z,5.20
2018-05-13T08:54:17.435Z,5.20
2018-05-13T08:55:18.027Z,5.10
2018-05-13T08:56:18.632Z,5.30
2018-05-13T08:57:19.208Z,5.10
2018-05-13T08:58:19.774Z,5.10
2018-05-13T08:59:20.427Z,4.80
2018-05-13T09:00:21.071Z,5.40
2018-05-13T09:01:21.652Z,5.10
2018-05-13T09:02:22.271Z,5.00
2018-05-13T09:03:22.854Z,4.70
2018-05-13T09:04:23.430Z,4.80
2018-05-13T09:05:24.050Z,4.90
2018-05-13T09:07:24.918Z,4.80
2018-05-13T09:08:25.673Z,5.00
2018-05-13T09:09:26.211Z,5.00
2018-05-13T09:10:26.837Z,5.00
2018-05-13T09:11:27.426Z,4.90
2018-05-13T09:12:28.006Z,5.20
2018-05-13T09:13:28.606Z,5.30
2018-05-13T09:14:29.292Z,5.10
2018-05-13T09:15:29.907Z,4.90
2018-05-13T09:41:35.184Z,3.60
2018-05-13T09:42:35.732Z,5.40
2018-05-13T09:43:36.421Z,5.90
2018-05-13T09:44:36.986Z,5.50
2018-05-13T09:45:37.605Z,5.50
2018-05-13T09:46:38.250Z,6.00
2018-05-13T09:47:38.822Z,5.10
2018-05-13T09:48:39.414Z,5.10
2018-05-13T10:13:59.047Z,5.50
2018-05-13T10:14:59.632Z,7.70
2018-05-13T10:16:00.378Z,7.20
2018-05-13T10:17:00.939Z,7.20
2018-05-13T10:18:01.513Z,7.00
2018-05-13T10:19:02.114Z,7.00
2018-05-13T10:20:02.703Z,6.90
2018-05-13T10:45:25.478Z,7.60
2018-05-13T10:46:26.068Z,7.50
2018-05-13T10:47:26.653Z,7.20
2018-05-13T10:48:27.213Z,6.80
2018-05-13T10:49:27.816Z,7.00
2018-05-13T10:51:28.693Z,7.40
2018-05-13T10:52:29.260Z,7.80
2018-05-13T10:53:29.968Z,7.50
2018-05-13T10:54:30.555Z,7.10
2018-05-13T10:55:31.132Z,7.50
2018-05-13T11:16:39.880Z,9.20
2018-05-13T11:17:40.464Z,9.70
2018-05-13T11:18:41.041Z,10.00
2018-05-13T11:19:42.183Z,9.90
2018-05-13T11:20:43.006Z,9.20
2018-05-13T11:21:43.580Z,9.20
2018-05-13T11:22:44.156Z,9.20
2018-05-13T11:23:44.753Z,9.40
2018-05-13T11:24:45.475Z,9.40
2018-05-13T11:26:46.434Z,9.20
2018-05-13T11:27:47.032Z,9.10
2018-05-13T11:41:50.867Z,9.80
2018-05-13T11:42:52.403Z,10.80
2018-05-13T11:43:52.991Z,10.60
2018-05-13T11:44:53.561Z,10.30
2018-05-13T11:45:54.127Z,10.60
2018-05-13T11:46:54.710Z,10.30
2018-05-13T11:47:55.339Z,9.90
2018-05-13T11:48:55.904Z,9.70
2018-05-13T11:49:56.467Z,10.70
2018-05-13T11:51:57.307Z,10.50
2018-05-13T11:52:57.864Z,9.90
2018-05-13T11:53:59.015Z,9.90
2018-05-13T11:54:59.575Z,10.30
2018-05-13T11:56:00.160Z,10.70
2018-05-13T11:57:00.722Z,11.40
2018-05-13T11:58:01.398Z,11.00
2018-05-13T11:59:02.016Z,10.80
2018-05-13T12:00:02.860Z,11.20
2018-05-13T12:01:03.500Z,10.80
2018-05-13T12:02:04.161Z,10.50
2018-05-13T12:03:04.694Z,10.10
2018-05-13T12:04:05.257Z,10.60
2018-05-13T12:05:05.865Z,10.00
2018-05-13T12:06:07.336Z,9.70
2018-05-13T12:07:07.902Z,10.50
2018-05-13T12:08:08.539Z,10.50
2018-05-13T12:09:09.268Z,10.20
2018-05-13T12:11:10.136Z,10.30
2018-05-13T12:12:10.728Z,10.50
2018-05-13T12:13:11.373Z,11.00
2018-05-13T12:14:11.969Z,11.10
2018-05-13T12:15:12.633Z,11.00
2018-05-13T12:16:13.237Z,10.80
2018-05-13T12:17:13.798Z,11.30
2018-05-13T12:19:15.298Z,10.70
2018-05-13T12:20:15.893Z,11.30
2018-05-13T12:21:16.453Z,11.20
2018-05-13T12:22:17.053Z,11.40
2018-05-13T12:23:17.649Z,10.70
2018-05-13T12:24:18.244Z,10.50
2018-05-13T12:25:18.855Z,10.00
2018-05-13T12:26:19.426Z,10.10
2018-05-13T12:27:20.017Z,9.70
2018-05-13T12:28:20.598Z,9.20
2018-05-13T12:29:21.201Z,9.80
2018-05-13T12:31:22.075Z,9.00
2018-05-13T12:32:22.649Z,8.60
2018-05-13T12:33:23.242Z,8.70
2018-05-13T12:34:23.803Z,8.40
2018-05-13T12:35:24.469Z,8.30
2018-05-13T12:36:25.055Z,8.00
2018-05-13T12:37:25.632Z,7.70
2018-05-13T12:38:26.268Z,7.50
2018-05-13T12:39:26.819Z,7.20
2018-05-13T12:40:27.402Z,7.10
2018-05-13T12:41:27.959Z,7.20
2018-05-13T12:42:28.570Z,7.70
2018-05-13T12:43:29.179Z,6.60
2018-05-13T12:44:29.789Z,7.50
2018-05-13T12:46:30.627Z,7.30
2018-05-13T12:47:31.225Z,7.40
2018-05-13T12:48:31.860Z,7.20
2018-05-13T12:49:32.538Z,6.90
2018-05-13T12:50:33.098Z,7.90
2018-05-13T12:51:33.685Z,7.40
2018-05-13T12:52:34.260Z,8.00
2018-05-13T12:53:34.889Z,7.40
2018-05-13T12:54:35.448Z,7.40
2018-05-13T12:55:36.072Z,8.20
2018-05-13T12:56:36.647Z,8.70
2018-05-13T12:57:37.216Z,7.60
2018-05-13T12:59:38.101Z,7.70
2018-05-13T13:00:38.677Z,8.80
2018-05-13T13:01:39.399Z,8.60
2018-05-13T13:02:39.972Z,8.30
2018-05-13T13:03:40.634Z,8.30
2018-05-13T13:04:41.253Z,8.60
2018-05-13T13:05:41.873Z,8.20
2018-05-13T13:06:42.428Z,9.40
2018-05-13T13:07:43.099Z,9.40
2018-05-13T13:08:43.691Z,9.50
2018-05-13T13:09:44.237Z,9.60
2018-05-13T13:10:44.836Z,9.20
2018-05-13T13:11:45.407Z,10.00
2018-05-13T13:12:45.958Z,9.90
2018-05-13T13:13:46.761Z,10.00
2018-05-13T13:14:47.309Z,10.60
2018-05-13T13:15:47.906Z,11.00
2018-05-13T13:16:48.470Z,10.30
2018-05-13T13:17:49.036Z,9.80
2018-05-13T13:19:50.536Z,10.50
2018-05-13T13:20:51.119Z,10.50
2018-05-13T13:21:51.694Z,10.40
2018-05-13T13:22:52.279Z,10.10
2018-05-13T13:23:52.899Z,10.30
2018-05-13T13:24:53.475Z,10.80
2018-05-13T13:25:54.105Z,10.00
2018-05-13T13:26:54.835Z,10.40
2018-05-13T13:27:55.431Z,9.60
2018-05-13T13:28:56.031Z,10.60
2018-05-13T13:29:56.639Z,10.70
2018-05-13T13:30:57.221Z,10.60
2018-05-13T13:31:57.825Z,11.30
2018-05-13T13:32:58.453Z,10.50
2018-05-13T13:33:59.009Z,10.20
2018-05-13T13:34:59.621Z,11.40
2018-05-13T13:36:00.304Z,11.30
2018-05-13T13:38:01.198Z,10.40
2018-05-13T13:39:01.774Z,10.00
2018-05-13T13:40:02.343Z,9.80
2018-05-13T13:41:02.924Z,9.60
2018-05-13T13:42:03.491Z,9.90
2018-05-13T13:43:05.348Z,9.90
2018-05-13T13:44:05.949Z,9.20
2018-05-13T13:45:06.552Z,10.40
2018-05-13T13:46:07.169Z,10.00
2018-05-13T13:47:07.753Z,9.20
2018-05-13T13:48:10.515Z,9.80
2018-05-13T13:49:11.127Z,9.90
2018-05-13T13:51:11.970Z,9.10
2018-05-13T13:52:12.577Z,9.70
2018-05-13T13:53:13.155Z,9.30
2018-05-13T13:55:14.058Z,10.60
2018-05-13T13:56:14.638Z,9.90
2018-05-13T13:57:15.227Z,10.00
2018-05-13T13:58:15.801Z,10.20
2018-05-13T14:14:14.053Z,6.30
2018-05-13T14:15:15.369Z,8.80
2018-05-13T14:16:15.964Z,8.50
2018-05-13T14:17:17.279Z,8.20
2018-05-13T14:18:17.858Z,7.70
2018-05-13T14:20:18.701Z,8.70
2018-05-13T14:21:19.302Z,8.40
2018-05-13T14:22:19.868Z,8.30
2018-05-13T14:23:20.443Z,8.20
2018-05-13T14:24:21.060Z,8.20
2018-05-13T14:25:21.617Z,8.00
2018-05-13T14:26:22.170Z,7.80
2018-05-13T14:28:22.996Z,8.10
2018-05-13T14:30:23.842Z,8.40
2018-05-13T14:32:25.299Z,8.60
2018-05-13T14:33:28.808Z,8.10
2018-05-13T14:34:34.090Z,8.10
2018-05-13T14:35:34.717Z,8.50
2018-05-13T14:37:35.644Z,8.30
2018-05-13T14:38:36.217Z,8.20
2018-05-13T14:39:36.868Z,8.30
2018-05-13T14:40:37.423Z,7.70
2018-05-13T14:41:38.076Z,8.20
2018-05-13T14:42:38.650Z,8.00
2018-05-13T14:43:39.306Z,7.80
2018-05-13T14:44:39.857Z,8.20
2018-05-13T14:45:40.505Z,8.30
2018-05-13T14:46:41.091Z,7.60
2018-05-13T14:48:41.916Z,8.00
2018-05-13T14:49:42.497Z,7.80
2018-05-13T14:50:43.121Z,7.90
2018-05-13T14:51:43.678Z,7.60
2018-05-13T14:52:44.255Z,7.70
2018-05-13T14:53:44.842Z,7.60
2018-05-13T14:54:45.459Z,7.70
2018-05-13T14:55:46.019Z,7.50
2018-05-13T14:57:46.877Z,7.50
2018-05-13T14:59:47.720Z,7.70
2018-05-13T15:00:49.004Z,8.00
2018-05-13T15:01:49.596Z,7.30
2018-05-13T15:02:50.159Z,8.10
2018-05-13T15:03:50.927Z,7.60
2018-05-13T15:04:51.561Z,7.70
